ADDS METAR Data INFO
IDs: Format: Raw Decoded Include TAF

Data at: 1916 UTC 23 Apr 2018

KCBG 231855Z AUTO 00000KT 10SM CLR 19/06 A3018 RMK AO2
KCBG 231835Z AUTO 31006KT 10SM CLR 19/06 A3019 RMK AO2
KCBG 231815Z AUTO 26005KT 10SM CLR 19/06 A3020 RMK AO2
KCBG 231755Z AUTO 26006KT 10SM CLR 19/06 A3020 RMK AO2
KCBG 231735Z AUTO 21005KT 10SM CLR 19/06 A3021 RMK AO2
KCBG 231715Z AUTO 22003KT 10SM CLR 18/05 A3022 RMK AO2
KCBG 231655Z AUTO 21007KT 143V213 10SM CLR 18/05 A3022 RMK AO2
KCBG 231635Z AUTO 18005KT 10SM CLR 18/04 A3023 RMK AO2
KCBG 231615Z AUTO 22004KT 10SM CLR 17/04 A3023 RMK AO2
KCBG 231555Z AUTO 20005KT 10SM CLR 17/04 A3024 RMK AO2
KCBG 231536Z AUTO 20003KT 10SM CLR 16/03 A3024 RMK AO2
KCBG 231535Z AUTO 20003KT 10SM CLR 16/03 A3024 RMK AO2
KCBG 231515Z AUTO 25005KT 10SM CLR 15/04 A3024 RMK AO2
KCBG 231455Z AUTO 23005KT 10SM CLR 14/03 A3024 RMK AO2
KCBG 231436Z AUTO 19003KT 10SM CLR 13/03 A3025 RMK AO2
KCBG 231435Z AUTO 17004KT 10SM CLR 13/03 A3025 RMK AO2
KCBG 231415Z AUTO 18003KT 10SM CLR 13/03 A3025 RMK AO2
KCBG 231355Z AUTO 00000KT 10SM CLR 12/03 A3025 RMK AO2
KCBG 231336Z AUTO 00000KT 10SM CLR 11/03 A3025 RMK AO2
KCBG 231315Z AUTO 00000KT 10SM CLR 09/02 A3025 RMK AO2
KCBG 231255Z AUTO 00000KT 10SM CLR 07/02 A3025 RMK AO2
KCBG 231235Z AUTO 00000KT 10SM CLR 04/M01 A3025 RMK AO2
KCBG 231215Z AUTO 00000KT 10SM CLR 02/M02 A3026 RMK AO2
KCBG 231155Z AUTO 00000KT 10SM CLR 01/M03 A3026 RMK AO2
KCBG 231135Z AUTO 00000KT 10SM CLR 01/M03 A3025 RMK AO2
KCBG 231115Z AUTO 00000KT 10SM CLR 01/M04 A3025 RMK AO2
KCBG 231055Z AUTO 00000KT 10SM CLR 01/M03 A3025 RMK AO2
KCBG 231035Z AUTO 00000KT 10SM CLR 00/M04 A3025 RMK AO2
KCBG 231015Z AUTO 00000KT 10SM CLR 00/M04 A3025 RMK AO2
KCBG 230955Z AUTO 00000KT 10SM CLR 01/M04 A3024 RMK AO2
KCBG 230935Z AUTO 00000KT 10SM CLR 01/M03 A3024 RMK AO2
KCBG 230915Z AUTO 00000KT 10SM CLR 02/M03 A3023 RMK AO2
KCBG 230855Z AUTO 00000KT 10SM CLR 02/M03 A3023 RMK AO2
KCBG 230835Z AUTO 00000KT 10SM CLR 02/M03 A3023 RMK AO2
KCBG 230815Z AUTO 00000KT 10SM CLR 03/M03 A3023 RMK AO2
KCBG 230755Z AUTO 00000KT 10SM CLR 02/M03 A3023 RMK AO2
KCBG 230735Z AUTO 00000KT 10SM CLR 03/M03 A3024 RMK AO2
KCBG 230715Z AUTO 00000KT 10SM CLR 03/M03 A3024 RMK AO2
KCBG 230655Z AUTO 00000KT 10SM CLR 03/M03 A3025 RMK AO2
KCBG 230635Z AUTO 00000KT 10SM CLR 03/M02 A3025 RMK AO2
KCBG 230615Z AUTO 00000KT 10SM CLR 03/M03 A3025 RMK AO2
KCBG 230555Z AUTO 00000KT 10SM CLR 03/M02 A3025 RMK AO2
KCBG 230535Z AUTO 00000KT 10SM CLR 04/M02 A3025 RMK AO2
KCBG 230515Z AUTO 00000KT 10SM CLR 04/M02 A3025 RMK AO2
KCBG 230456Z AUTO 00000KT 10SM CLR 04/M02 A3025 RMK AO2
KCBG 230455Z AUTO 00000KT 10SM CLR 04/M02 A3025 RMK AO2
KCBG 230435Z AUTO 00000KT 10SM CLR 04/M02 A3025 RMK AO2
KCBG 230416Z AUTO 00000KT 10SM CLR 04/M02 A3025 RMK AO2
KCBG 230415Z AUTO 00000KT 10SM CLR 05/M02 A3025 RMK AO2
KCBG 230355Z AUTO 00000KT 10SM CLR 05/M02 A3025 RMK AO2
KCBG 230335Z AUTO 00000KT 10SM CLR 06/M01 A3025 RMK AO2
KCBG 230315Z AUTO 00000KT 10SM CLR 07/M01 A3025 RMK AO2
KCBG 230255Z AUTO 00000KT 10SM CLR 07/M01 A3025 RMK AO2
KCBG 230235Z AUTO 00000KT 10SM CLR 08/00 A3025 RMK AO2
KCBG 230215Z AUTO 00000KT 10SM CLR 09/01 A3025 RMK AO2
KCBG 230155Z AUTO 00000KT 10SM CLR 11/01 A3024 RMK AO2
KCBG 230135Z AUTO 00000KT 10SM CLR 12/02 A3024 RMK AO2
KCBG 230115Z AUTO 00000KT 7SM CLR 13/02 A3024 RMK AO2
KCBG 230055Z AUTO 00000KT 10SM CLR 15/03 A3024 RMK AO2
KCBG 230035Z AUTO 00000KT 10SM CLR 17/04 A3023 RMK AO2
KCBG 230015Z AUTO 00000KT 10SM CLR 17/04 A3023 RMK AO2
KCBG 222355Z AUTO 18003KT 10SM CLR 18/04 A3024 RMK AO2
KCBG 222335Z AUTO 20005KT 10SM CLR 18/04 A3024 RMK AO2
KCBG 222315Z AUTO 17005KT 10SM CLR 18/05 A3024 RMK AO2
KCBG 222255Z AUTO 15006KT 10SM CLR 18/05 A3025 RMK AO2
KCBG 222235Z AUTO 18005KT 10SM CLR 18/05 A3025 RMK AO2
KCBG 222215Z AUTO 00000KT 10SM CLR 18/05 A3025 RMK AO2
KCBG 222155Z AUTO 20005KT 10SM CLR 18/05 A3025 RMK AO2
KCBG 222135Z AUTO 17008KT 10SM CLR 18/05 A3025 RMK AO2
KCBG 222115Z AUTO 17006KT 10SM CLR 18/05 A3026 RMK AO2
KCBG 222055Z AUTO 16004KT 10SM CLR 18/05 A3026 RMK AO2
KCBG 222035Z AUTO 16007KT 10SM CLR 18/05 A3027 RMK AO2
KCBG 222015Z AUTO 18007KT 143V203 10SM CLR 18/05 A3028 RMK AO2
KCBG 221955Z AUTO 20007KT 143V213 10SM CLR 17/04 A3028 RMK AO2
KCBG 221935Z AUTO 19006KT 10SM CLR 18/04 A3029 RMK AO2
KCBG 221915Z AUTO 00000KT 10SM CLR 17/04 A3030 RMK AO2
KCBG 221855Z AUTO 00000KT 10SM CLR 16/03 A3030 RMK AO2
KCBG 221835Z AUTO 15004KT 10SM CLR 17/03 A3031 RMK AO2
KCBG 221815Z AUTO 18004KT 10SM CLR 16/04 A3032 RMK AO2
KCBG 221755Z AUTO 22004KT 10SM CLR 16/03 A3033 RMK AO2
KCBG 221735Z AUTO 16004KT 10SM CLR 16/03 A3034 RMK AO2
KCBG 221715Z AUTO 16007KT 10SM CLR 15/03 A3035 RMK AO2
KCBG 221655Z AUTO 19003KT 10SM 14/03 A3035 RMK AO2
KCBG 221635Z AUTO 18006KT 10SM 14/03 A3036 RMK AO2
KCBG 221615Z AUTO 14004KT 10SM CLR 14/03 A3036 RMK AO2
KCBG 221555Z AUTO 16004KT 10SM CLR 13/02 A3036 RMK AO2
KCBG 221535Z AUTO 00000KT 10SM CLR 13/02 A3036 RMK AO2
KCBG 221515Z AUTO 18003KT 10SM CLR 12/02 A3037 RMK AO2
KCBG 221455Z AUTO 21003KT 10SM CLR 11/01 A3037 RMK AO2
KCBG 221435Z AUTO 21004KT 10SM CLR 11/01 A3037 RMK AO2
KCBG 221415Z AUTO 00000KT 10SM CLR 10/00 A3038 RMK AO2
KCBG 221355Z AUTO 00000KT 10SM CLR 09/M01 A3038 RMK AO2
KCBG 221335Z AUTO 00000KT 10SM CLR 07/M01 A3037 RMK AO2
KCBG 221315Z AUTO 00000KT 10SM CLR 05/M02 A3037 RMK AO2
KCBG 221255Z AUTO 00000KT 10SM CLR 04/M03 A3038 RMK AO2
KCBG 221235Z AUTO 00000KT 10SM CLR 01/M04 A3037 RMK AO2
KCBG 221215Z AUTO 00000KT 10SM CLR 00/M05 A3037 RMK AO2
KCBG 221155Z AUTO 00000KT 10SM CLR M01/M07 A3037 RMK AO2
KCBG 221135Z AUTO 00000KT 10SM CLR M02/M07 A3036 RMK AO2
KCBG 221115Z AUTO 00000KT 10SM CLR M02/M07 A3036 RMK AO2
KCBG 221055Z AUTO 00000KT 10SM CLR M02/M07 A3035 RMK AO2
KCBG 221035Z AUTO 00000KT 10SM CLR M01/M06 A3034 RMK AO2
KCBG 221016Z AUTO 00000KT 10SM CLR M01/M06 A3033 RMK AO2
KCBG 221015Z AUTO 00000KT 10SM CLR M01/M06 A3033 RMK AO2
KCBG 220955Z AUTO 00000KT 10SM CLR M02/M06 A3032 RMK AO2
KCBG 220935Z AUTO 00000KT 10SM CLR M01/M06 A3032 RMK AO2
KCBG 220915Z AUTO 00000KT 10SM CLR 00/M06 A3032 RMK AO2
KCBG 220855Z AUTO 00000KT 10SM CLR M01/M06 A3033 RMK AO2
KCBG 220836Z AUTO 00000KT 10SM CLR 00/M06 A3033 RMK AO2
KCBG 220835Z AUTO 00000KT 10SM CLR 01/M06 A3033 RMK AO2
KCBG 220815Z AUTO 00000KT 10SM CLR 00/M06 A3033 RMK AO2
KCBG 220755Z AUTO 00000KT 10SM CLR 00/M06 A3033 RMK AO2
KCBG 220735Z AUTO 00000KT 10SM CLR 00/M06 A3033 RMK AO2